Time;durP1;ratioP1;P1;durP2;ratioP2;P2;SDS_P1;SDS_P2;PMS_P1;PMS_P2;Temp;Humidity;BMP_temperature;BMP_pressure;BME280_temperature;BME280_humidity;BME280_pressure;Samples;Min_cycle;Max_cycle;Signal;HPM_P1;HPM_P2
2021/12/07 00:03:10;;;;;;;18.15;12.50;;;;;;;6.11;51.40;99840.00;2446539;80;25164;-73
2021/12/07 00:06:53;;;;;;;17.73;12.05;;;;;;;6.11;51.37;99838.70;2444541;80;25614;-72
2021/12/07 00:10:19;;;;;;;18.67;12.25;;;;;;;6.10;51.37;99841.23;2368275;83;26302;-75
2021/12/07 00:13:49;;;;;;;17.00;11.78;;;;;;;6.09;51.37;99839.06;2365943;83;25646;-73
2021/12/07 00:17:16;;;;;;;15.93;11.48;;;;;;;6.09;51.34;99840.35;2368699;82;25907;-73
2021/12/07 00:20:43;;;;;;;16.40;12.50;;;;;;;6.08;51.31;99837.73;2370497;82;25789;-73
2021/12/07 00:24:05;;;;;;;15.93;12.03;;;;;;;6.07;51.29;99841.13;2370713;83;25725;-76
2021/12/07 00:27:26;;;;;;;16.20;11.50;;;;;;;6.07;51.29;99848.89;2368338;82;25839;-72
2021/12/07 00:30:49;;;;;;;18.07;12.30;;;;;;;6.07;51.29;99852.77;2366160;82;25785;-72
2021/12/07 00:37:57;;;;;;;16.82;12.70;;;;;;;6.05;51.24;99855.32;2365154;82;25695;-72
2021/12/07 00:41:18;;;;;;;17.10;12.88;;;;;;;6.05;51.23;99864.37;2366272;83;25697;-72
2021/12/07 00:44:39;;;;;;;16.40;12.50;;;;;;;6.04;51.22;99872.98;2369972;82;25822;-72
2021/12/07 00:48:01;;;;;;;20.35;13.50;;;;;;;6.03;51.23;99876.38;2434732;80;25731;-72
2021/12/07 00:51:33;;;;;;;;;;;;;;;;;;;;;
2021/12/07 00:54:46;;;;;;;19.50;13.60;;;;;;;6.03;51.20;99884.13;2439908;80;25700;-72
2021/12/07 00:58:17;;;;;;;20.00;13.38;;;;;;;6.02;51.18;99881.09;2444465;80;25641;-72
2021/12/07 01:01:38;;;;;;;20.65;13.15;;;;;;;6.01;51.18;99879.34;2443071;80;25743;-71
2021/12/07 01:08:55;;;;;;;18.12;12.88;;;;;;;5.98;51.15;99888.29;2365756;83;25854;-72
2021/12/07 01:26:36;;;;;;;20.12;13.38;;;;;;;5.93;51.10;99889.83;2338606;83;25959;-73
2021/12/07 01:30:08;;;;;;;19.17;12.88;;;;;;;5.94;51.06;99890.70;2339387;83;25756;-71
2021/12/07 01:59:33;;;;;;;18.50;12.50;;;;;;;5.86;50.99;99873.59;2336491;83;25814;-71
2021/12/07 02:02:55;;;;;;;18.50;11.83;;;;;;;5.85;50.99;99874.02;2331757;83;25909;-73
2021/12/07 02:06:35;;;;;;;18.52;12.80;;;;;;;5.86;50.97;99873.59;2353373;83;25754;-72
2021/12/07 02:10:03;;;;;;;17.25;12.53;;;;;;;5.85;50.97;99871.84;2362662;83;25744;-71
2021/12/07 02:17:01;;;;;;;17.82;12.50;;;;;;;5.84;50.94;99879.16;2359696;83;25713;-71
2021/12/07 02:20:28;;;;;;;19.00;13.30;;;;;;;5.82;50.93;99885.55;2361887;83;25702;-71
2021/12/07 02:23:49;;;;;;;17.42;12.13;;;;;;;5.83;50.93;99898.06;2361681;83;25768;-72
2021/12/07 02:27:11;;;;;;;19.40;12.70;;;;;;;5.82;50.92;99900.20;2360939;83;25819;-71
2021/12/07 02:30:32;;;;;;;18.98;13.10;;;;;;;5.83;50.93;99903.23;2365294;80;26492;-71
2021/12/07 02:34:04;;;;;;;14.77;12.23;;;;;;;5.82;50.92;99899.77;2450758;80;25710;-71
2021/12/07 02:37:30;;;;;;;20.57;12.98;;;;;;;5.82;50.91;99890.72;2424742;80;25469;-71
2021/12/07 02:40:52;;;;;;;16.40;12.03;;;;;;;5.82;50.89;99883.38;2449010;80;25688;-72
2021/12/07 02:44:20;;;;;;;17.62;11.60;;;;;;;5.82;50.89;99884.25;2449875;80;25251;-72
2021/12/07 02:47:42;;;;;;;;;;;;;;;5.82;50.88;99884.25;2451076;80;25613;-71
2021/12/07 02:51:04;;;;;;;18.45;13.35;;;;;;;5.83;50.86;99885.13;2449485;80;25633;-73
2021/12/07 02:54:27;;;;;;;18.15;13.10;;;;;;;5.81;50.89;99881.22;2447004;80;25499;-72
2021/12/07 02:57:48;;;;;;;14.03;11.40;;;;;;;5.82;50.87;99889.84;2450107;80;25667;-74
2021/12/07 03:01:19;;;;;;;16.62;12.58;;;;;;;5.82;50.87;99892.02;2448940;80;25637;-72
2021/12/07 03:05:04;;;;;;;24.52;14.65;;;;;;;5.83;50.85;99881.25;2450082;80;25607;-72
2021/12/07 03:26:30;;;;;;;22.52;13.18;;;;;;;5.83;50.79;99876.08;2389162;82;25634;-71
2021/12/07 03:29:52;;;;;;;23.62;12.58;;;;;;;5.82;50.80;99872.62;2384742;81;25374;-72
2021/12/07 03:33:13;;;;;;;19.32;12.30;;;;;;;5.82;50.79;99871.32;2386460;82;25658;-71
2021/12/07 03:36:35;;;;;;;20.50;12.88;;;;;;;5.83;50.78;99872.20;2386112;81;25635;-71
2021/12/07 03:39:56;;;;;;;18.15;12.37;;;;;;;5.84;50.77;99876.56;2386861;82;25655;-71
2021/12/07 03:43:31;;;;;;;20.08;12.82;;;;;;;5.84;50.76;99878.73;2384348;82;25672;-71
2021/12/07 03:47:10;;;;;;;17.70;13.20;;;;;;;5.85;50.74;99875.73;2385176;81;25729;-72
2021/12/07 03:50:32;;;;;;;19.70;12.68;;;;;;;5.85;50.72;99874.44;2384379;82;25570;-72
2021/12/07 03:53:53;;;;;;;19.62;12.37;;;;;;;5.85;50.71;99875.73;2383306;81;25661;-71
2021/12/07 03:57:15;;;;;;;22.22;14.10;;;;;;;5.84;50.73;99878.73;2385262;82;25864;-71
2021/12/07 04:00:44;;;;;;;22.62;14.05;;;;;;;5.84;50.71;99880.45;2383349;82;25713;-72
2021/12/07 04:04:05;;;;;;;;;;;;;;;5.84;50.72;99885.20;2386967;82;25743;-71
2021/12/07 04:07:27;;;;;;;20.47;12.53;;;;;;;5.84;50.70;99892.96;2386896;81;25681;-71
2021/12/07 04:11:04;;;;;;;22.77;14.18;;;;;;;5.83;50.70;99896.77;2388813;82;25591;-71
2021/12/07 04:14:41;;;;;;;20.77;13.48;;;;;;;5.83;50.71;99899.36;2387505;81;25643;-73
2021/12/07 04:18:13;;;;;;;19.98;13.75;;;;;;;5.83;50.70;99904.11;2416267;80;25555;-71
2021/12/07 04:21:34;;;;;;;20.72;12.05;;;;;;;5.83;50.69;99903.23;2415719;80;25638;-71
2021/12/07 04:24:55;;;;;;;18.30;13.33;;;;;;;5.83;50.67;99909.70;2392787;81;26297;-71
2021/12/07 04:28:16;;;;;;;21.50;14.23;;;;;;;5.82;50.69;99917.88;2419481;80;25591;-72
2021/12/07 04:31:37;;;;;;;23.35;13.48;;;;;;;5.81;50.66;99920.02;2396746;81;25697;-71
2021/12/07 04:34:58;;;;;;;20.50;12.93;;;;;;;5.82;50.63;99930.81;2419607;81;25796;-71
2021/12/07 04:38:20;;;;;;;20.13;13.53;;;;;;;5.82;50.66;99911.41;2420139;80;25626;-71
2021/12/07 04:41:46;;;;;;;22.95;13.22;;;;;;;5.82;50.64;99914.42;2417105;80;25587;-72
2021/12/07 04:45:11;;;;;;;18.52;12.47;;;;;;;5.82;50.64;99919.59;2420042;81;25566;-72
2021/12/07 04:59:18;;;;;;;18.15;13.20;;;;;;;5.80;50.61;99904.00;2419153;81;25618;-72
2021/12/07 05:02:42;;;;;;;24.40;13.00;;;;;;;5.81;50.62;99915.26;2418788;80;25686;-71
2021/12/07 05:06:03;;;;;;;19.15;12.53;;;;;;;5.80;50.60;99923.82;2419443;81;25643;-71
2021/12/07 05:24:20;;;;;;;24.07;13.28;;;;;;;5.77;50.59;99936.64;2416091;81;25891;-72
2021/12/07 05:38:39;;;;;;;17.32;12.13;;;;;;;5.73;50.60;99945.13;2411988;81;25546;-72
2021/12/07 05:42:01;;;;;;;20.25;14.50;;;;;;;5.69;50.63;99951.48;2409738;81;25675;-72
2021/12/07 05:45:33;;;;;;;21.25;13.48;;;;;;;5.72;50.63;99956.30;2413436;81;25620;-71
2021/12/07 05:48:57;;;;;;;20.62;13.48;;;;;;;5.72;50.61;99952.42;2413820;81;25964;-71
2021/12/07 05:52:24;;;;;;;18.57;12.90;;;;;;;5.74;50.62;99955.55;2410514;80;25248;-72
2021/12/07 05:55:54;;;;;;;22.65;13.18;;;;;;;5.73;50.60;99947.71;2411923;81;26085;-72
2021/12/07 05:59:22;;;;;;;21.12;13.70;;;;;;;5.72;50.59;99949.42;2411046;81;26039;-72
2021/12/07 06:02:46;;;;;;;20.43;13.08;;;;;;;5.73;50.58;99945.13;2405837;80;25604;-72
2021/12/07 06:06:39;;;;;;;21.97;13.50;;;;;;;5.72;50.58;99940.37;2408955;81;25621;-72
2021/12/07 06:10:13;;;;;;;23.42;13.25;;;;;;;5.76;50.58;99946.53;2408406;81;25777;-72
2021/12/07 06:13:35;;;;;;;19.87;13.53;;;;;;;5.73;50.57;99946.42;2416215;80;25900;-72
2021/12/07 06:16:58;;;;;;;21.73;13.22;;;;;;;5.75;50.57;99949.95;2421680;81;26293;-72
2021/12/07 06:20:28;;;;;;;19.57;13.35;;;;;;;5.75;50.57;99949.95;2414786;80;25699;-72
2021/12/07 06:23:56;;;;;;;24.27;13.32;;;;;;;5.74;50.55;99951.66;2412877;81;25720;-72
2021/12/07 06:27:29;;;;;;;21.45;13.93;;;;;;;5.75;50.55;99959.00;2418257;81;25483;-72
2021/12/07 06:30:56;;;;;;;17.35;13.35;;;;;;;5.75;50.53;99956.42;2430728;78;25874;-72
2021/12/07 06:34:37;;;;;;;25.32;14.58;;;;;;;5.73;50.52;99949.00;2443036;78;25661;-70
2021/12/07 06:38:11;;;;;;;23.12;13.30;;;;;;;5.75;50.49;99950.83;2443044;80;25770;-72
2021/12/07 06:41:35;;;;;;;21.25;13.80;;;;;;;5.75;50.49;99959.88;2453019;80;25705;-72
2021/12/07 06:44:56;;;;;;;22.25;14.25;;;;;;;5.74;50.48;99962.01;2455711;80;25740;-72
2021/12/07 06:48:17;;;;;;;21.37;13.53;;;;;;;5.75;50.48;99965.05;2428269;78;25991;-72
2021/12/07 06:51:38;;;;;;;19.77;12.85;;;;;;;5.75;50.46;99959.88;2424943;81;25853;-72
2021/12/07 06:54:59;;;;;;;19.23;12.87;;;;;;;5.76;50.46;99974.98;2425062;81;25646;-72
2021/12/07 06:58:46;;;;;;;22.32;13.53;;;;;;;5.75;50.45;99970.64;2420895;81;25689;-72
2021/12/07 07:02:10;;;;;;;23.55;13.65;;;;;;;5.76;50.43;99971.10;2419962;81;25677;-72
2021/12/07 07:05:34;;;;;;;24.12;14.83;;;;;;;5.77;50.45;99972.86;2419408;81;25673;-74
2021/12/07 07:08:55;;;;;;;20.17;14.00;;;;;;;5.76;50.42;99973.27;2422462;81;25789;-72
2021/12/07 07:12:17;;;;;;;22.45;14.40;;;;;;;5.76;50.41;99971.98;2421797;80;25611;-70
2021/12/07 07:15:39;;;;;;;26.33;15.05;;;;;;;5.78;50.41;99977.22;2418185;81;25910;-71
2021/12/07 07:19:03;;;;;;;26.55;14.68;;;;;;;5.79;50.39;99980.27;2420109;81;25671;-72
2021/12/07 07:22:24;;;;;;;23.67;14.73;;;;;;;5.79;50.38;99979.85;2423691;81;25586;-71
2021/12/07 07:25:45;;;;;;;21.95;14.60;;;;;;;5.80;50.35;99977.72;2419394;80;26160;-71
2021/12/07 07:29:06;;;;;;;24.12;14.23;;;;;;;5.81;50.33;99981.22;2417710;81;26282;-73
2021/12/07 07:32:28;;;;;;;24.63;14.53;;;;;;;5.81;50.29;99990.27;2417198;81;25988;-71
2021/12/07 07:35:51;;;;;;;25.50;14.87;;;;;;;5.82;50.23;99989.44;2423575;81;25227;-70
2021/12/07 07:39:16;;;;;;;23.47;14.35;;;;;;;5.82;50.21;99995.48;2417618;80;25941;-71
2021/12/07 07:42:37;;;;;;;22.02;13.85;;;;;;;5.83;50.18;99999.83;2420469;81;25673;-71
2021/12/07 07:46:13;;;;;;;22.42;13.40;;;;;;;5.85;50.16;99998.60;2375731;82;25729;-70
2021/12/07 07:49:34;;;;;;;19.52;12.85;;;;;;;5.86;50.15;99993.47;2377749;83;25709;-71
2021/12/07 07:52:59;;;;;;;19.30;12.98;;;;;;;5.88;50.11;100002.59;2370087;83;26278;-71
2021/12/07 07:56:21;;;;;;;17.02;11.48;;;;;;;5.89;50.08;100007.81;2374153;82;25873;-71
2021/12/07 07:59:42;;;;;;;16.93;12.05;;;;;;;5.91;50.04;100011.35;2378568;83;25709;-72
2021/12/07 08:03:09;;;;;;;20.15;12.30;;;;;;;5.95;50.02;100010.20;2373206;82;25869;-70
2021/12/07 08:06:31;;;;;;;21.68;12.30;;;;;;;5.96;49.99;100015.42;2357930;83;25729;-71
2021/12/07 08:09:52;;;;;;;20.12;12.43;;;;;;;6.01;49.96;100013.02;2358049;83;25754;-71
2021/12/07 08:13:14;;;;;;;21.95;11.60;;;;;;;6.03;49.92;100018.69;2360526;83;25783;-71
2021/12/07 08:16:35;;;;;;;22.10;13.60;;;;;;;6.06;49.88;100018.80;2351317;83;25703;-72
2021/12/07 08:19:56;;;;;;;15.73;11.60;;;;;;;6.10;49.99;100015.48;2356086;83;25689;-71
2021/12/07 08:23:17;;;;;;;15.63;10.93;;;;;;;6.15;50.24;100014.38;2383128;82;25734;-71
2021/12/07 08:26:38;;;;;;;19.48;11.03;;;;;;;6.20;50.44;100021.00;2385912;82;25754;-71
2021/12/07 08:30:00;;;;;;;18.15;11.95;;;;;;;6.26;50.55;100021.22;2386567;82;25763;-70
2021/12/07 08:33:21;;;;;;;14.73;10.48;;;;;;;6.31;50.60;100037.78;2386103;82;25865;-71
2021/12/07 08:36:42;;;;;;;13.62;10.45;;;;;;;6.31;50.50;100036.09;2384056;82;25630;-72
2021/12/07 08:40:06;;;;;;;16.90;11.48;;;;;;;6.32;50.37;100040.44;2386129;82;26470;-71
2021/12/07 08:43:30;;;;;;;13.20;10.82;;;;;;;6.34;50.26;100039.19;2386662;82;25650;-71
2021/12/07 08:46:54;;;;;;;17.30;11.20;;;;;;;6.34;50.08;100042.65;2389597;82;25742;-72
2021/12/07 08:50:29;;;;;;;15.37;10.97;;;;;;;6.35;49.97;100053.50;2384219;82;26027;-71
2021/12/07 09:01:07;;;;;;;15.38;11.45;;;;;;;6.42;49.88;100055.02;2353356;83;25663;-71
2021/12/07 09:04:30;;;;;;;14.73;9.73;;;;;;;6.45;49.90;100053.83;2349120;83;26402;-71
2021/12/07 09:07:52;;;;;;;15.40;11.57;;;;;;;6.47;49.97;100050.44;2350844;83;25725;-71
2021/12/07 09:11:22;;;;;;;17.02;10.70;;;;;;;6.51;50.09;100049.71;2353037;83;25789;-72
2021/12/07 09:14:52;;;;;;;12.30;10.18;;;;;;;6.55;50.19;100054.61;2356940;82;25790;-71
2021/12/07 09:18:12;;;;;;;15.25;10.10;;;;;;;6.60;50.28;100060.39;2346031;82;25739;-71
2021/12/07 09:21:37;;;;;;;14.93;10.55;;;;;;;6.64;50.27;100061.37;2358102;83;25692;-71
2021/12/07 09:24:59;;;;;;;15.08;10.48;;;;;;;6.67;50.33;100062.78;2360075;83;25854;-72
2021/12/07 09:28:20;;;;;;;14.58;10.65;;;;;;;6.70;50.30;100069.78;2360651;83;25676;-72
2021/12/07 09:31:55;;;;;;;10.68;9.45;;;;;;;6.73;50.33;100062.12;2365734;81;25952;-72
2021/12/07 09:35:16;;;;;;;14.43;9.98;;;;;;;6.74;50.15;100057.39;2380661;82;26749;-72
2021/12/07 09:38:39;;;;;;;15.98;9.83;;;;;;;6.74;50.04;100056.97;2399293;82;25848;-71
2021/12/07 09:42:00;;;;;;;12.53;9.60;;;;;;;6.74;49.88;100049.63;2398011;81;26304;-71
2021/12/07 09:45:25;;;;;;;16.37;10.90;;;;;;;6.75;49.82;100052.67;2399464;81;25206;-71
2021/12/07 09:48:48;;;;;;;13.15;9.53;;;;;;;6.75;49.70;100047.48;2399101;81;25658;-70
2021/12/07 09:52:15;;;;;;;12.95;9.70;;;;;;;6.74;49.53;100046.61;2397347;81;25697;-71
2021/12/07 09:55:42;;;;;;;13.43;8.85;;;;;;;6.74;49.39;100048.33;2398754;81;25884;-71
2021/12/07 09:59:06;;;;;;;11.35;9.53;;;;;;;6.75;49.24;100047.10;2398242;81;25678;-71
2021/12/07 10:02:27;;;;;;;10.63;8.20;;;;;;;6.75;49.19;100044.89;2426601;81;25715;-71
2021/12/07 10:05:48;;;;;;;12.70;9.00;;;;;;;6.75;49.08;100043.22;2426196;81;26039;-72
2021/12/07 10:09:10;;;;;;;10.10;8.05;;;;;;;6.76;49.01;100037.61;2428382;81;25653;-72
2021/12/07 10:12:32;;;;;;;12.05;8.60;;;;;;;6.75;48.89;100047.10;2428862;81;26345;-70
2021/12/07 10:16:00;;;;;;;9.68;8.18;;;;;;;6.74;48.82;100040.55;2427737;80;25734;-77
2021/12/07 10:19:32;;;;;;;9.68;7.95;;;;;;;6.74;48.69;100040.55;2429089;81;25653;-70
2021/12/07 10:22:53;;;;;;;10.90;9.00;;;;;;;6.75;48.65;100031.94;2428933;81;25866;-71
2021/12/07 10:26:19;;;;;;;10.13;7.87;;;;;;;6.77;48.60;100035.06;2429353;81;25822;-72
2021/12/07 10:29:42;;;;;;;9.55;7.90;;;;;;;6.82;48.51;100038.70;2426595;80;26220;-71
2021/12/07 10:33:06;;;;;;;12.23;8.23;;;;;;;6.85;48.43;100036.59;2429085;81;25600;-74
2021/12/07 10:36:45;;;;;;;10.03;8.10;;;;;;;6.88;48.34;100030.22;2428471;81;25612;-72
2021/12/07 10:40:11;;;;;;;13.00;8.58;;;;;;;6.92;48.23;100026.02;2429076;81;25669;-81
2021/12/07 10:43:52;;;;;;;10.85;8.08;;;;;;;6.98;48.10;100026.22;2406813;81;25674;-81
2021/12/07 10:47:22;;;;;;;8.95;8.05;;;;;;;7.01;48.02;100022.02;2429027;81;25649;-71
2021/12/07 10:54:51;;;;;;;12.28;9.23;;;;;;;7.09;47.81;100030.94;2421045;81;25640;-71
2021/12/07 10:58:13;;;;;;;11.03;9.50;;;;;;;7.10;47.77;100027.92;2428421;80;25508;-70
2021/12/07 11:01:39;;;;;;;10.50;8.68;;;;;;;7.12;47.68;100022.38;2428597;81;26289;-71
2021/12/07 11:05:05;;;;;;;13.65;9.55;;;;;;;7.19;47.61;100032.50;2428565;81;25751;-71
2021/12/07 11:08:32;;;;;;;13.00;9.38;;;;;;;7.22;47.53;100025.73;2429223;81;25703;-71
2021/12/07 11:11:58;;;;;;;17.25;11.18;;;;;;;7.28;47.41;100025.89;2428701;81;25589;-71
2021/12/07 11:15:27;;;;;;;16.45;9.75;;;;;;;7.38;47.30;100024.89;2310751;85;25755;-71
2021/12/07 11:18:52;;;;;;;14.70;10.48;;;;;;;7.53;47.17;100018.88;2314249;82;25738;-71
2021/12/07 11:22:45;;;;;;;14.85;10.80;;;;;;;7.73;46.96;100019.05;2296608;85;25849;-70
2021/12/07 11:30:20;;;;;;;16.30;11.48;;;;;;;8.22;46.63;100023.44;2283032;85;25658;-71
2021/12/07 11:33:41;;;;;;;17.48;11.75;;;;;;;8.87;46.29;100019.08;2226057;88;26609;-71
2021/12/07 11:37:24;;;;;;;19.12;11.48;;;;;;;9.52;45.76;100022.78;2239528;88;25699;-70
2021/12/07 11:40:44;;;;;;;19.12;11.43;;;;;;;10.06;45.15;100023.91;2238237;88;25689;-71
2021/12/07 11:44:09;;;;;;;14.25;9.93;;;;;;;10.16;44.62;100032.36;2243091;88;26582;-70
2021/12/07 11:47:34;;;;;;;19.12;11.80;;;;;;;10.12;44.45;100033.13;2243768;88;25838;-71
2021/12/07 11:50:56;;;;;;;18.02;11.43;;;;;;;10.06;44.29;100039.11;2250015;85;25819;-72
2021/12/07 11:54:20;;;;;;;15.40;10.82;;;;;;;9.97;44.25;100043.25;2318696;85;25756;-73
2021/12/07 11:57:42;;;;;;;20.32;11.78;;;;;;;9.84;44.17;100048.19;2320361;85;25897;-75
2021/12/07 12:01:06;;;;;;;21.25;11.90;;;;;;;9.64;43.91;100048.19;2318110;85;25692;-71
2021/12/07 12:04:27;;;;;;;20.80;12.15;;;;;;;9.44;43.85;100052.94;2317794;85;25749;-70
2021/12/07 12:07:50;;;;;;;18.70;11.63;;;;;;;9.24;43.78;100052.48;2320668;85;25760;-82
2021/12/07 12:11:41;;;;;;;19.35;12.15;;;;;;;9.06;43.71;100052.92;2413439;80;26321;-72
2021/12/07 12:15:45;;;;;;;20.00;12.20;;;;;;;8.88;43.68;100057.69;2437259;80;25857;-72
2021/12/07 12:19:43;;;;;;;16.00;12.00;;;;;;;8.68;43.67;100059.34;2436489;80;25914;-72
2021/12/07 12:23:39;;;;;;;18.80;11.95;;;;;;;8.47;43.67;100068.77;2274362;86;25647;-72
2021/12/07 12:27:13;;;;;;;17.75;13.10;;;;;;;8.30;43.72;100073.84;2101619;92;25769;-71
2021/12/07 12:30:40;;;;;;;18.07;12.53;;;;;;;8.13;43.77;100069.91;2109130;91;25845;-70
2021/12/07 12:34:02;;;;;;;21.17;13.25;;;;;;;7.96;43.83;100074.62;2108771;93;25681;-70
2021/12/07 12:37:32;;;;;;;19.82;13.98;;;;;;;7.85;43.87;100080.80;2109909;92;26073;-71
2021/12/07 12:41:03;;;;;;;19.40;13.65;;;;;;;7.73;43.92;100067.48;2109710;93;26322;-71
2021/12/07 12:44:26;;;;;;;22.80;14.90;;;;;;;7.62;44.02;100079.22;2109744;92;25860;-70
2021/12/07 12:48:13;;;;;;;24.40;15.13;;;;;;;7.51;44.09;100075.01;2108881;93;25620;-69
2021/12/07 12:51:50;;;;;;;25.37;15.98;;;;;;;7.38;44.15;100075.45;2107894;93;25764;-70
2021/12/07 12:55:40;;;;;;;21.52;15.48;;;;;;;7.27;44.28;100068.64;2111790;91;25825;-70
2021/12/07 12:59:09;;;;;;;30.30;15.35;;;;;;;7.18;44.32;100073.11;2164698;88;25980;-71
2021/12/07 13:02:31;;;;;;;23.52;15.25;;;;;;;7.07;44.37;100070.17;2266445;82;25745;-70
2021/12/07 13:06:00;;;;;;;23.92;14.80;;;;;;;7.00;44.40;100069.51;2438696;79;25811;-70
2021/12/07 13:09:29;;;;;;;21.97;15.35;;;;;;;6.93;44.44;100077.91;2450131;80;25700;-71
2021/12/07 13:12:50;;;;;;;17.32;11.55;;;;;;;6.86;44.44;100083.31;2428455;80;26004;-75
2021/12/07 13:16:16;;;;;;;21.52;10.70;;;;;;;7.20;48.29;100076.64;2421108;80;25721;-72
2021/12/07 13:20:22;;;;;;;20.32;12.68;;;;;;;7.83;49.21;100082.88;2417503;80;25542;-74
2021/12/07 13:24:01;;;;;;;15.08;11.33;;;;;;;7.92;48.74;100077.55;2418432;81;25613;-70
2021/12/07 13:27:22;;;;;;;21.37;13.00;;;;;;;7.81;48.84;100082.42;2420717;81;26289;-71
2021/12/07 13:31:01;;;;;;;16.30;11.48;;;;;;;7.72;48.91;100083.86;2430099;79;25721;-71
2021/12/07 13:34:32;;;;;;;17.80;11.73;;;;;;;7.64;48.91;100091.84;2427335;80;25817;-71
2021/12/07 13:37:53;;;;;;;17.90;11.75;;;;;;;7.55;48.97;100089.83;2427643;80;25593;-70
2021/12/07 13:41:22;;;;;;;19.90;12.73;;;;;;;7.50;49.06;100096.18;2427586;80;25809;-71
2021/12/07 13:44:58;;;;;;;;;;;;;;;7.44;49.08;100096.41;2427377;81;26135;-70
2021/12/07 13:48:19;;;;;;;17.52;12.05;;;;;;;7.39;49.12;100097.56;2420088;81;25664;-70
2021/12/07 13:51:44;;;;;;;17.87;12.93;;;;;;;7.30;49.07;100097.27;2414684;81;25692;-70
2021/12/07 13:55:10;;;;;;;24.25;15.03;;;;;;;7.18;48.68;100098.16;2437819;79;25928;-72
2021/12/07 14:02:34;;;;;;;20.48;12.63;;;;;;;6.89;48.10;100091.61;2262740;86;26063;-72
2021/12/07 14:05:57;;;;;;;23.42;13.30;;;;;;;6.74;47.81;100098.42;2267644;87;25750;-71
2021/12/07 14:09:25;;;;;;;19.67;13.65;;;;;;;6.63;47.59;100110.13;2266730;86;25980;-71
2021/12/07 14:12:48;;;;;;;21.10;14.80;;;;;;;6.52;47.41;100111.06;2268079;87;26472;-71
2021/12/07 14:16:11;;;;;;;25.32;14.05;;;;;;;6.43;47.27;100108.13;2267579;86;26468;-70
2021/12/07 14:19:32;;;;;;;27.37;15.05;;;;;;;6.31;47.16;100111.56;2297686;84;25476;-70
2021/12/07 14:22:53;;;;;;;24.52;14.50;;;;;;;6.23;47.07;100119.48;2312225;85;25346;-72
2021/12/07 14:26:22;;;;;;;22.13;13.32;;;;;;;6.16;46.99;100118.37;2317134;84;25983;-71
2021/12/07 14:29:43;;;;;;;23.52;14.93;;;;;;;6.09;46.90;100125.44;2322195;85;25792;-71
2021/12/07 14:33:04;;;;;;;18.40;13.43;;;;;;;6.02;46.93;100128.21;2322206;82;25701;-72
2021/12/07 14:36:38;;;;;;;22.33;12.80;;;;;;;6.06;46.91;100130.50;2298345;85;25941;-72
2021/12/07 14:40:02;;;;;;;19.12;13.18;;;;;;;6.08;46.96;100128.45;2383175;82;25858;-71
2021/12/07 14:43:25;;;;;;;21.97;11.78;;;;;;;6.09;47.00;100128.91;2398500;82;25877;-72
2021/12/07 14:46:48;;;;;;;16.97;10.90;;;;;;;6.11;47.04;100132.44;2398966;82;25778;-71
2021/12/07 14:50:09;;;;;;;16.17;10.90;;;;;;;6.12;47.09;100136.78;2399382;82;25959;-73
2021/12/07 14:53:47;;;;;;;22.95;13.30;;;;;;;6.11;47.13;100131.15;2399029;82;25721;-72
2021/12/07 14:57:08;;;;;;;18.55;11.12;;;;;;;6.11;47.19;100128.56;2399011;82;26380;-71
2021/12/07 15:00:34;;;;;;;14.98;11.12;;;;;;;6.10;47.24;100120.30;2429708;79;25759;-78
2021/12/07 15:03:56;;;;;;;10.23;8.45;;;;;;;6.09;47.29;100125.02;2423482;79;26437;-81
2021/12/07 15:07:18;;;;;;;13.70;10.28;;;;;;;6.12;48.90;100125.14;2397584;79;25725;-74
2021/12/07 15:10:40;;;;;;;16.95;9.28;;;;;;;6.28;48.63;100122.72;2395136;82;25665;-77
2021/12/07 15:14:08;;;;;;;10.00;8.30;;;;;;;6.29;48.56;100117.99;2395311;82;44738;-72
2021/12/07 15:17:32;;;;;;;14.43;9.70;;;;;;;6.26;48.59;100120.88;2411054;80;25856;-81
2021/12/07 15:20:53;;;;;;;15.55;8.90;;;;;;;6.23;48.58;100121.64;2426967;81;26267;-80
2021/12/07 15:24:46;;;;;;;11.30;8.63;;;;;;;6.21;48.57;100126.29;2404404;81;25662;-71
2021/12/07 15:28:07;;;;;;;12.13;8.90;;;;;;;6.20;48.54;100127.12;2312447;83;25556;-71
2021/12/07 15:31:33;;;;;;;11.48;8.20;;;;;;;6.17;48.50;100126.59;2318434;85;25663;-77
2021/12/07 15:34:54;;;;;;;13.70;7.83;;;;;;;6.16;48.48;100124.84;2319245;84;25739;-72
2021/12/07 15:38:19;;;;;;;12.18;7.67;;;;;;;6.13;48.47;100126.89;2319498;85;26060;-78
2021/12/07 15:41:50;;;;;;;8.88;7.90;;;;;;;6.11;48.42;100122.51;2320110;83;25801;-72
2021/12/07 15:45:13;;;;;;;12.10;8.13;;;;;;;6.09;48.37;100120.27;2320102;83;25716;-72
2021/12/07 15:48:35;;;;;;;9.88;7.83;;;;;;;6.07;48.30;100129.66;2320002;83;25717;-71
2021/12/07 15:52:05;;;;;;;8.30;7.45;;;;;;;6.04;48.28;100127.87;2320221;83;25281;-72
2021/12/07 15:55:35;;;;;;;;;;;;;;;6.01;48.25;100125.16;2262801;86;25833;-71
2021/12/07 15:59:00;;;;;;;7.67;6.08;;;;;;;6.00;48.18;100132.43;2270943;85;25742;-72
2021/12/07 16:02:23;;;;;;;7.65;6.75;;;;;;;5.96;48.13;100131.85;2263008;85;26025;-73
2021/12/07 16:05:51;;;;;;;12.93;6.70;;;;;;;5.95;48.13;100136.98;2259333;86;26529;-71
2021/12/07 16:09:18;;;;;;;8.50;6.67;;;;;;;5.93;48.06;100133.03;2255639;86;26065;-79
2021/12/07 16:12:39;;;;;;;8.23;6.70;;;;;;;5.91;48.03;100138.55;2258824;86;26547;-74
2021/12/07 16:16:17;;;;;;;6.75;6.15;;;;;;;5.88;48.00;100144.47;2262465;85;26371;-72
2021/12/07 16:19:38;;;;;;;6.92;6.22;;;;;;;5.87;48.00;100141.81;2284450;86;25808;-71
2021/12/07 16:23:02;;;;;;;10.08;5.80;;;;;;;5.86;47.94;100147.81;2298465;83;25709;-72
2021/12/07 16:26:23;;;;;;;8.23;7.00;;;;;;;5.84;47.91;100149.06;2357463;83;25913;-71
2021/12/07 16:29:45;;;;;;;6.30;5.70;;;;;;;5.82;47.89;100157.58;2357930;83;25788;-71
2021/12/07 16:33:07;;;;;;;7.22;6.22;;;;;;;5.80;47.89;100166.55;2354800;83;26472;-71
2021/12/07 16:36:29;;;;;;;6.10;5.50;;;;;;;5.79;47.87;100173.86;2357328;83;25211;-71
2021/12/07 16:39:54;;;;;;;6.72;5.58;;;;;;;5.77;47.87;100175.91;2352576;82;25902;-70
2021/12/07 16:43:15;;;;;;;7.03;5.55;;;;;;;5.76;47.86;100169.85;2345760;83;25713;-70
2021/12/07 16:46:37;;;;;;;6.57;5.43;;;;;;;5.76;47.87;100175.44;2351695;82;25909;-72
2021/12/07 16:49:58;;;;;;;6.15;5.22;;;;;;;5.74;47.85;100171.52;2338956;83;25726;-71
2021/12/07 16:53:20;;;;;;;6.47;5.75;;;;;;;5.73;47.84;100170.14;2348925;83;25259;-71
2021/12/07 16:56:43;;;;;;;8.30;5.55;;;;;;;5.72;47.84;100168.39;2340180;83;25849;-72
2021/12/07 17:00:12;;;;;;;6.35;5.22;;;;;;;5.72;47.83;100167.09;2357849;83;25832;-81
2021/12/07 17:03:41;;;;;;;6.78;5.55;;;;;;;5.71;47.83;100169.22;2337230;83;26456;-71
2021/12/07 17:07:04;;;;;;;6.40;5.17;;;;;;;5.68;47.81;100177.31;2435431;80;25688;-72
2021/12/07 17:10:27;;;;;;;8.03;5.95;;;;;;;5.67;47.80;100163.92;2451251;80;25708;-71
2021/12/07 17:13:48;;;;;;;6.05;5.47;;;;;;;5.67;47.80;100165.22;2473971;79;25913;-70
2021/12/07 17:17:12;;;;;;;6.33;5.60;;;;;;;5.67;47.81;100172.98;2434000;79;25555;-71
2021/12/07 17:20:34;;;;;;;8.10;6.75;;;;;;;5.66;47.78;100172.89;2427357;81;25630;-71
2021/12/07 17:23:55;;;;;;;6.58;5.85;;;;;;;5.65;47.77;100166.84;2427295;80;25634;-72
2021/12/07 17:27:16;;;;;;;6.47;5.35;;;;;;;5.65;47.75;100168.55;2427253;80;26399;-72
2021/12/07 17:30:38;;;;;;;7.00;6.30;;;;;;;5.64;47.76;100162.50;2426463;81;25707;-72
2021/12/07 17:33:59;;;;;;;6.33;5.72;;;;;;;5.63;47.75;100173.65;2403495;81;25682;-80
2021/12/07 17:37:20;;;;;;;6.55;5.92;;;;;;;5.63;47.77;100185.70;2400095;81;25680;-79
2021/12/07 17:40:41;;;;;;;5.90;5.25;;;;;;;5.63;47.74;100185.28;2429704;81;25805;-77
2021/12/07 17:44:04;;;;;;;6.65;6.05;;;;;;;5.63;47.79;100182.70;2408471;80;25792;-80
2021/12/07 17:47:26;;;;;;;6.17;5.25;;;;;;;5.64;47.78;100182.31;2424807;80;25680;-71
2021/12/07 17:50:47;;;;;;;7.05;5.20;;;;;;;5.64;47.79;100183.20;2416897;80;25725;-71
2021/12/07 17:54:09;;;;;;;8.53;6.12;;;;;;;5.64;47.79;100191.38;2409879;79;25812;-72
2021/12/07 17:57:30;;;;;;;8.55;6.20;;;;;;;5.63;47.78;100188.28;2466942;80;25202;-72
2021/12/07 18:00:53;;;;;;;7.22;6.25;;;;;;;5.63;47.78;100189.58;2466930;79;26063;-73
2021/12/07 18:04:14;;;;;;;6.60;5.95;;;;;;;5.62;47.75;100193.88;2466450;79;25648;-75
2021/12/07 18:07:39;;;;;;;8.05;6.65;;;;;;;5.61;47.74;100197.30;2416996;80;25610;-74